sensor_id;sensor_type;location;lat;lon;timestamp;temperature;humidity
3758;DHT22;1894;51.038;13.692;2023-04-03T00:01:16;4.50;99.90
3758;DHT22;1894;51.038;13.692;2023-04-03T00:03:44;4.60;99.90
3758;DHT22;1894;51.038;13.692;2023-04-03T00:06:12;4.50;99.90
3758;DHT22;1894;51.038;13.692;2023-04-03T00:08:40;4.50;99.90
3758;DHT22;1894;51.038;13.692;2023-04-03T00:11:08;4.40;99.90
3758;DHT22;1894;51.038;13.692;2023-04-03T00:13:36;4.40;99.90
3758;DHT22;1894;51.038;13.692;2023-04-03T00:16:04;4.40;99.90
3758;DHT22;1894;51.038;13.692;2023-04-03T00:18:32;4.40;99.90
3758;DHT22;1894;51.038;13.692;2023-04-03T00:20:59;4.40;99.90
3758;DHT22;1894;51.038;13.692;2023-04-03T00:23:26;4.20;99.90
3758;DHT22;1894;51.038;13.692;2023-04-03T00:25:53;4.30;99.90
3758;DHT22;1894;51.038;13.692;2023-04-03T00:28:22;4.20;99.90
3758;DHT22;1894;51.038;13.692;2023-04-03T00:30:50;4.20;99.90
3758;DHT22;1894;51.038;13.692;2023-04-03T00:33:17;4.20;99.90
3758;DHT22;1894;51.038;13.692;2023-04-03T00:35:49;4.10;99.90
3758;DHT22;1894;51.038;13.692;2023-04-03T00:38:17;4.10;99.90
3758;DHT22;1894;51.038;13.692;2023-04-03T00:40:47;4.10;99.90
3758;DHT22;1894;51.038;13.692;2023-04-03T00:43:18;4.10;99.90
3758;DHT22;1894;51.038;13.692;2023-04-03T00:45:48;4.00;99.90
3758;DHT22;1894;51.038;13.692;2023-04-03T00:50:59;3.90;99.90
3758;DHT22;1894;51.038;13.692;2023-04-03T00:53:49;3.90;99.90
3758;DHT22;1894;51.038;13.692;2023-04-03T00:56:23;3.90;99.90
3758;DHT22;1894;51.038;13.692;2023-04-03T00:59:24;3.70;99.90
3758;DHT22;1894;51.038;13.692;2023-04-03T01:01:54;3.60;99.90
3758;DHT22;1894;51.038;13.692;2023-04-03T01:04:40;3.50;99.90
3758;DHT22;1894;51.038;13.692;2023-04-03T01:07:22;3.40;99.90
3758;DHT22;1894;51.038;13.692;2023-04-03T01:09:53;3.50;99.90
3758;DHT22;1894;51.038;13.692;2023-04-03T01:12:30;3.60;99.90
3758;DHT22;1894;51.038;13.692;2023-04-03T01:15:22;3.60;99.90
3758;DHT22;1894;51.038;13.692;2023-04-03T01:17:53;3.60;99.90
3758;DHT22;1894;51.038;13.692;2023-04-03T01:20:43;3.60;99.90
3758;DHT22;1894;51.038;13.692;2023-04-03T01:23:50;3.60;99.90
3758;DHT22;1894;51.038;13.692;2023-04-03T01:26:38;3.50;99.90
3758;DHT22;1894;51.038;13.692;2023-04-03T01:29:06;3.60;99.90
3758;DHT22;1894;51.038;13.692;2023-04-03T01:31:51;3.50;99.90
3758;DHT22;1894;51.038;13.692;2023-04-03T01:34:18;3.50;99.90
3758;DHT22;1894;51.038;13.692;2023-04-03T01:36:46;3.30;99.90
3758;DHT22;1894;51.038;13.692;2023-04-03T01:39:13;3.30;99.90
3758;DHT22;1894;51.038;13.692;2023-04-03T01:41:41;3.20;99.90
3758;DHT22;1894;51.038;13.692;2023-04-03T01:44:17;3.20;99.90
3758;DHT22;1894;51.038;13.692;2023-04-03T01:46:44;3.10;99.90
3758;DHT22;1894;51.038;13.692;2023-04-03T01:49:18;3.00;99.90
3758;DHT22;1894;51.038;13.692;2023-04-03T01:51:45;3.10;99.90
3758;DHT22;1894;51.038;13.692;2023-04-03T01:54:12;3.10;99.90
3758;DHT22;1894;51.038;13.692;2023-04-03T01:56:39;3.10;99.90
3758;DHT22;1894;51.038;13.692;2023-04-03T01:59:07;3.10;99.90
3758;DHT22;1894;51.038;13.692;2023-04-03T02:01:35;3.10;99.90
3758;DHT22;1894;51.038;13.692;2023-04-03T02:04:03;3.00;99.90
3758;DHT22;1894;51.038;13.692;2023-04-03T02:06:30;3.00;99.90
3758;DHT22;1894;51.038;13.692;2023-04-03T02:08:58;2.90;99.90
3758;DHT22;1894;51.038;13.692;2023-04-03T02:11:25;2.90;99.90
3758;DHT22;1894;51.038;13.692;2023-04-03T02:13:52;2.90;99.90
3758;DHT22;1894;51.038;13.692;2023-04-03T02:16:19;2.90;99.90
3758;DHT22;1894;51.038;13.692;2023-04-03T02:18:48;2.90;99.90
3758;DHT22;1894;51.038;13.692;2023-04-03T02:21:16;2.80;99.90
3758;DHT22;1894;51.038;13.692;2023-04-03T02:23:43;2.70;99.90
3758;DHT22;1894;51.038;13.692;2023-04-03T02:26:13;2.70;99.90
3758;DHT22;1894;51.038;13.692;2023-04-03T02:28:44;2.60;99.90
3758;DHT22;1894;51.038;13.692;2023-04-03T02:31:12;2.60;99.90
3758;DHT22;1894;51.038;13.692;2023-04-03T02:33:41;2.50;99.90
3758;DHT22;1894;51.038;13.692;2023-04-03T02:36:10;2.40;99.90
3758;DHT22;1894;51.038;13.692;2023-04-03T02:38:41;2.40;99.90
3758;DHT22;1894;51.038;13.692;2023-04-03T02:41:11;2.30;99.90
3758;DHT22;1894;51.038;13.692;2023-04-03T02:43:38;2.30;99.90
3758;DHT22;1894;51.038;13.692;2023-04-03T02:46:07;2.30;99.90
3758;DHT22;1894;51.038;13.692;2023-04-03T02:48:34;2.30;99.90
3758;DHT22;1894;51.038;13.692;2023-04-03T02:51:02;2.30;99.90
3758;DHT22;1894;51.038;13.692;2023-04-03T02:53:29;2.20;99.90
3758;DHT22;1894;51.038;13.692;2023-04-03T02:56:00;2.20;99.90
3758;DHT22;1894;51.038;13.692;2023-04-03T02:58:27;2.10;99.90
3758;DHT22;1894;51.038;13.692;2023-04-03T03:00:57;2.00;99.90
3758;DHT22;1894;51.038;13.692;2023-04-03T03:03:24;2.00;99.90
3758;DHT22;1894;51.038;13.692;2023-04-03T03:06:04;1.90;99.90
3758;DHT22;1894;51.038;13.692;2023-04-03T03:08:34;1.80;99.90
3758;DHT22;1894;51.038;13.692;2023-04-03T03:11:02;1.70;99.90
3758;DHT22;1894;51.038;13.692;2023-04-03T03:13:31;1.60;99.90
3758;DHT22;1894;51.038;13.692;2023-04-03T03:15:59;1.50;99.90
3758;DHT22;1894;51.038;13.692;2023-04-03T03:18:27;1.50;99.90
3758;DHT22;1894;51.038;13.692;2023-04-03T03:20:59;1.40;99.90
3758;DHT22;1894;51.038;13.692;2023-04-03T03:23:29;1.30;99.90
3758;DHT22;1894;51.038;13.692;2023-04-03T03:26:03;1.20;99.90
3758;DHT22;1894;51.038;13.692;2023-04-03T03:28:34;1.10;99.90
3758;DHT22;1894;51.038;13.692;2023-04-03T03:31:04;1.10;99.90
3758;DHT22;1894;51.038;13.692;2023-04-03T03:33:33;1.10;99.90
3758;DHT22;1894;51.038;13.692;2023-04-03T03:36:01;1.00;99.90
3758;DHT22;1894;51.038;13.692;2023-04-03T03:38:28;1.00;99.90
3758;DHT22;1894;51.038;13.692;2023-04-03T03:40:58;1.00;99.90
3758;DHT22;1894;51.038;13.692;2023-04-03T03:43:25;0.90;99.90
3758;DHT22;1894;51.038;13.692;2023-04-03T03:45:53;0.80;99.90
3758;DHT22;1894;51.038;13.692;2023-04-03T03:48:23;0.80;99.90
3758;DHT22;1894;51.038;13.692;2023-04-03T03:50:51;0.70;99.90
3758;DHT22;1894;51.038;13.692;2023-04-03T03:53:22;0.60;99.90
3758;DHT22;1894;51.038;13.692;2023-04-03T03:55:52;0.60;99.90
3758;DHT22;1894;51.038;13.692;2023-04-03T03:58:23;0.60;99.90
3758;DHT22;1894;51.038;13.692;2023-04-03T04:00:51;0.60;99.90
3758;DHT22;1894;51.038;13.692;2023-04-03T04:03:18;0.50;99.90
3758;DHT22;1894;51.038;13.692;2023-04-03T04:05:47;0.50;99.90
3758;DHT22;1894;51.038;13.692;2023-04-03T04:08:15;0.50;99.90
3758;DHT22;1894;51.038;13.692;2023-04-03T04:10:44;0.40;99.90
3758;DHT22;1894;51.038;13.692;2023-04-03T04:13:14;0.50;99.90
3758;DHT22;1894;51.038;13.692;2023-04-03T04:15:42;0.40;99.90
3758;DHT22;1894;51.038;13.692;2023-04-03T04:18:10;0.40;99.90
3758;DHT22;1894;51.038;13.692;2023-04-03T04:20:40;0.30;99.90
3758;DHT22;1894;51.038;13.692;2023-04-03T04:23:07;0.30;99.90
3758;DHT22;1894;51.038;13.692;2023-04-03T04:25:36;0.20;99.90
3758;DHT22;1894;51.038;13.692;2023-04-03T04:28:06;0.20;99.90
3758;DHT22;1894;51.038;13.692;2023-04-03T04:30:34;0.20;99.90
3758;DHT22;1894;51.038;13.692;2023-04-03T04:33:02;0.20;99.90
3758;DHT22;1894;51.038;13.692;2023-04-03T04:35:33;0.20;99.90
3758;DHT22;1894;51.038;13.692;2023-04-03T04:38:02;0.10;99.90
3758;DHT22;1894;51.038;13.692;2023-04-03T04:40:29;0.10;99.90
3758;DHT22;1894;51.038;13.692;2023-04-03T04:42:58;0.10;99.90
3758;DHT22;1894;51.038;13.692;2023-04-03T04:45:25;0.10;99.90
3758;DHT22;1894;51.038;13.692;2023-04-03T04:47:55;0.10;99.90
3758;DHT22;1894;51.038;13.692;2023-04-03T04:50:24;0.10;99.90
3758;DHT22;1894;51.038;13.692;2023-04-03T04:52:53;0.10;99.90
3758;DHT22;1894;51.038;13.692;2023-04-03T04:55:21;0.10;99.90
3758;DHT22;1894;51.038;13.692;2023-04-03T04:57:49;0.20;99.90
3758;DHT22;1894;51.038;13.692;2023-04-03T05:00:17;0.20;99.90
3758;DHT22;1894;51.038;13.692;2023-04-03T05:02:45;0.30;99.90
3758;DHT22;1894;51.038;13.692;2023-04-03T05:05:12;0.40;99.90
3758;DHT22;1894;51.038;13.692;2023-04-03T05:07:39;0.60;99.90
3758;DHT22;1894;51.038;13.692;2023-04-03T05:10:09;0.70;99.90
3758;DHT22;1894;51.038;13.692;2023-04-03T05:12:38;1.00;99.90
3758;DHT22;1894;51.038;13.692;2023-04-03T05:15:06;1.20;99.90
3758;DHT22;1894;51.038;13.692;2023-04-03T05:17:33;1.20;99.90
3758;DHT22;1894;51.038;13.692;2023-04-03T05:20:03;1.30;99.90
3758;DHT22;1894;51.038;13.692;2023-04-03T05:22:33;1.40;99.90
3758;DHT22;1894;51.038;13.692;2023-04-03T05:25:05;1.50;99.90
3758;DHT22;1894;51.038;13.692;2023-04-03T05:27:34;1.70;99.90
3758;DHT22;1894;51.038;13.692;2023-04-03T05:30:02;1.60;99.90
3758;DHT22;1894;51.038;13.692;2023-04-03T05:32:31;1.70;99.90
3758;DHT22;1894;51.038;13.692;2023-04-03T05:35:25;1.80;99.90
3758;DHT22;1894;51.038;13.692;2023-04-03T05:37:56;1.80;99.90
3758;DHT22;1894;51.038;13.692;2023-04-03T05:40:24;1.80;99.90
3758;DHT22;1894;51.038;13.692;2023-04-03T05:42:53;2.00;99.90
3758;DHT22;1894;51.038;13.692;2023-04-03T05:45:23;2.10;99.90
3758;DHT22;1894;51.038;13.692;2023-04-03T05:47:51;2.10;99.90
3758;DHT22;1894;51.038;13.692;2023-04-03T05:50:19;2.10;99.90
3758;DHT22;1894;51.038;13.692;2023-04-03T05:52:51;2.20;99.90
3758;DHT22;1894;51.038;13.692;2023-04-03T05:55:19;2.10;99.90
3758;DHT22;1894;51.038;13.692;2023-04-03T05:57:47;2.20;99.90
3758;DHT22;1894;51.038;13.692;2023-04-03T06:00:14;2.20;99.90
3758;DHT22;1894;51.038;13.692;2023-04-03T06:02:49;2.20;99.90
3758;DHT22;1894;51.038;13.692;2023-04-03T06:05:21;2.40;99.90
3758;DHT22;1894;51.038;13.692;2023-04-03T06:07:49;2.40;99.90
3758;DHT22;1894;51.038;13.692;2023-04-03T06:10:17;2.40;99.90
3758;DHT22;1894;51.038;13.692;2023-04-03T06:12:45;2.40;99.90
3758;DHT22;1894;51.038;13.692;2023-04-03T06:15:13;2.50;99.90
3758;DHT22;1894;51.038;13.692;2023-04-03T06:17:40;2.70;99.90
3758;DHT22;1894;51.038;13.692;2023-04-03T06:20:08;2.60;99.90
3758;DHT22;1894;51.038;13.692;2023-04-03T06:22:36;2.60;99.90
3758;DHT22;1894;51.038;13.692;2023-04-03T06:25:05;2.30;99.90
3758;DHT22;1894;51.038;13.692;2023-04-03T06:27:33;2.30;99.90
3758;DHT22;1894;51.038;13.692;2023-04-03T06:30:00;2.40;99.90
3758;DHT22;1894;51.038;13.692;2023-04-03T06:32:27;2.50;99.90
3758;DHT22;1894;51.038;13.692;2023-04-03T06:34:54;2.40;99.90
3758;DHT22;1894;51.038;13.692;2023-04-03T06:37:22;2.40;99.90
3758;DHT22;1894;51.038;13.692;2023-04-03T06:39:52;2.20;99.90
3758;DHT22;1894;51.038;13.692;2023-04-03T06:42:20;2.30;99.90
3758;DHT22;1894;51.038;13.692;2023-04-03T06:44:57;2.50;99.90
3758;DHT22;1894;51.038;13.692;2023-04-03T06:47:24;2.50;99.90
3758;DHT22;1894;51.038;13.692;2023-04-03T06:49:52;2.40;99.90
3758;DHT22;1894;51.038;13.692;2023-04-03T06:52:19;2.50;99.90
3758;DHT22;1894;51.038;13.692;2023-04-03T06:54:47;2.70;99.90
3758;DHT22;1894;51.038;13.692;2023-04-03T06:57:14;2.60;99.90
3758;DHT22;1894;51.038;13.692;2023-04-03T06:59:42;2.40;99.90
3758;DHT22;1894;51.038;13.692;2023-04-03T07:02:11;2.50;99.90
3758;DHT22;1894;51.038;13.692;2023-04-03T07:04:39;2.60;99.90
3758;DHT22;1894;51.038;13.692;2023-04-03T07:07:07;2.80;99.90
3758;DHT22;1894;51.038;13.692;2023-04-03T07:09:34;2.90;99.90
3758;DHT22;1894;51.038;13.692;2023-04-03T07:12:01;2.80;99.90
3758;DHT22;1894;51.038;13.692;2023-04-03T07:14:29;2.80;99.90
3758;DHT22;1894;51.038;13.692;2023-04-03T07:16:56;2.50;99.90
3758;DHT22;1894;51.038;13.692;2023-04-03T07:19:23;2.70;99.90
3758;DHT22;1894;51.038;13.692;2023-04-03T07:21:54;2.90;99.90
3758;DHT22;1894;51.038;13.692;2023-04-03T07:24:22;2.90;99.90
3758;DHT22;1894;51.038;13.692;2023-04-03T07:26:52;2.60;99.90
3758;DHT22;1894;51.038;13.692;2023-04-03T07:29:20;2.90;99.90
3758;DHT22;1894;51.038;13.692;2023-04-03T07:31:48;2.90;99.90
3758;DHT22;1894;51.038;13.692;2023-04-03T07:34:16;3.10;99.90
3758;DHT22;1894;51.038;13.692;2023-04-03T07:36:44;2.90;99.90
3758;DHT22;1894;51.038;13.692;2023-04-03T07:39:11;2.80;99.90
3758;DHT22;1894;51.038;13.692;2023-04-03T07:41:41;3.10;99.90
3758;DHT22;1894;51.038;13.692;2023-04-03T07:44:08;3.00;99.90
3758;DHT22;1894;51.038;13.692;2023-04-03T07:46:39;3.00;99.90
3758;DHT22;1894;51.038;13.692;2023-04-03T07:49:07;3.10;99.90
3758;DHT22;1894;51.038;13.692;2023-04-03T07:51:36;3.40;99.90
3758;DHT22;1894;51.038;13.692;2023-04-03T07:54:04;3.30;99.90
3758;DHT22;1894;51.038;13.692;2023-04-03T07:56:31;3.10;99.90
3758;DHT22;1894;51.038;13.692;2023-04-03T07:58:59;3.50;99.90
3758;DHT22;1894;51.038;13.692;2023-04-03T08:01:30;3.50;99.90
3758;DHT22;1894;51.038;13.692;2023-04-03T08:03:59;3.60;99.90
3758;DHT22;1894;51.038;13.692;2023-04-03T08:06:28;3.90;99.90
3758;DHT22;1894;51.038;13.692;2023-04-03T08:09:13;4.10;99.90
3758;DHT22;1894;51.038;13.692;2023-04-03T08:11:43;3.80;99.90
3758;DHT22;1894;51.038;13.692;2023-04-03T08:14:16;3.90;99.90
3758;DHT22;1894;51.038;13.692;2023-04-03T08:16:46;4.10;99.90
3758;DHT22;1894;51.038;13.692;2023-04-03T08:19:15;4.20;99.90
3758;DHT22;1894;51.038;13.692;2023-04-03T08:21:53;4.40;99.90
3758;DHT22;1894;51.038;13.692;2023-04-03T08:24:21;4.50;99.90
3758;DHT22;1894;51.038;13.692;2023-04-03T08:26:48;4.90;99.90
3758;DHT22;1894;51.038;13.692;2023-04-03T08:29:19;4.80;99.90
3758;DHT22;1894;51.038;13.692;2023-04-03T08:31:55;5.20;99.90
3758;DHT22;1894;51.038;13.692;2023-04-03T08:34:25;5.20;99.90
3758;DHT22;1894;51.038;13.692;2023-04-03T08:36:53;5.50;99.90
3758;DHT22;1894;51.038;13.692;2023-04-03T08:39:20;5.60;99.70
3758;DHT22;1894;51.038;13.692;2023-04-03T08:41:48;5.50;99.50
3758;DHT22;1894;51.038;13.692;2023-04-03T08:47:17;5.50;99.80
3758;DHT22;1894;51.038;13.692;2023-04-03T08:49:56;5.60;99.10
3758;DHT22;1894;51.038;13.692;2023-04-03T08:52:41;5.80;98.80
3758;DHT22;1894;51.038;13.692;2023-04-03T08:58:06;4.80;99.90
3758;DHT22;1894;51.038;13.692;2023-04-03T09:00:45;5.40;99.70
3758;DHT22;1894;51.038;13.692;2023-04-03T09:03:17;5.70;99.00
3758;DHT22;1894;51.038;13.692;2023-04-03T09:08:45;6.00;98.50
3758;DHT22;1894;51.038;13.692;2023-04-03T09:11:36;6.10;98.10
3758;DHT22;1894;51.038;13.692;2023-04-03T09:17:16;6.10;97.70
3758;DHT22;1894;51.038;13.692;2023-04-03T09:22:52;6.50;96.70
3758;DHT22;1894;51.038;13.692;2023-04-03T09:25:31;6.70;96.40
3758;DHT22;1894;51.038;13.692;2023-04-03T09:28:01;6.60;96.00
3758;DHT22;1894;51.038;13.692;2023-04-03T09:30:36;6.80;95.80
3758;DHT22;1894;51.038;13.692;2023-04-03T09:33:05;6.90;94.80
3758;DHT22;1894;51.038;13.692;2023-04-03T09:35:36;7.00;95.00
3758;DHT22;1894;51.038;13.692;2023-04-03T09:38:21;7.00;95.20
3758;DHT22;1894;51.038;13.692;2023-04-03T09:40:51;7.00;94.40
3758;DHT22;1894;51.038;13.692;2023-04-03T09:43:37;6.90;94.30
3758;DHT22;1894;51.038;13.692;2023-04-03T09:46:31;6.90;93.40
3758;DHT22;1894;51.038;13.692;2023-04-03T09:49:02;7.10;94.00
3758;DHT22;1894;51.038;13.692;2023-04-03T09:51:36;6.70;93.40
3758;DHT22;1894;51.038;13.692;2023-04-03T09:54:31;7.00;93.10
3758;DHT22;1894;51.038;13.692;2023-04-03T09:57:06;7.10;92.60
3758;DHT22;1894;51.038;13.692;2023-04-03T09:59:37;7.30;91.90
3758;DHT22;1894;51.038;13.692;2023-04-03T10:02:33;7.30;91.70
3758;DHT22;1894;51.038;13.692;2023-04-03T10:05:05;7.60;91.00
3758;DHT22;1894;51.038;13.692;2023-04-03T10:10:47;8.10;89.90
3758;DHT22;1894;51.038;13.692;2023-04-03T10:13:18;8.10;84.40
3758;DHT22;1894;51.038;13.692;2023-04-03T10:15:50;7.80;86.00
3758;DHT22;1894;51.038;13.692;2023-04-03T10:18:42;7.70;87.60
3758;DHT22;1894;51.038;13.692;2023-04-03T10:21:33;7.30;86.90
3758;DHT22;1894;51.038;13.692;2023-04-03T10:24:36;6.90;89.40
3758;DHT22;1894;51.038;13.692;2023-04-03T10:27:18;6.80;87.90
3758;DHT22;1894;51.038;13.692;2023-04-03T10:31:14;7.20;86.10
3758;DHT22;1894;51.038;13.692;2023-04-03T10:47:40;8.30;80.70
3758;DHT22;1894;51.038;13.692;2023-04-03T10:56:22;8.00;78.20
3758;DHT22;1894;51.038;13.692;2023-04-03T10:59:16;7.90;76.40
3758;DHT22;1894;51.038;13.692;2023-04-03T11:02:31;7.60;76.80
3758;DHT22;1894;51.038;13.692;2023-04-03T11:05:07;7.80;76.50
3758;DHT22;1894;51.038;13.692;2023-04-03T11:07:46;8.00;75.50
3758;DHT22;1894;51.038;13.692;2023-04-03T11:10:37;7.80;75.50
3758;DHT22;1894;51.038;13.692;2023-04-03T11:13:26;7.80;73.80
3758;DHT22;1894;51.038;13.692;2023-04-03T11:15:56;7.60;74.10
3758;DHT22;1894;51.038;13.692;2023-04-03T11:18:39;7.90;70.90
3758;DHT22;1894;51.038;13.692;2023-04-03T11:21:22;8.00;70.50
3758;DHT22;1894;51.038;13.692;2023-04-03T11:23:56;7.80;71.80
3758;DHT22;1894;51.038;13.692;2023-04-03T11:26:31;7.90;70.40
3758;DHT22;1894;51.038;13.692;2023-04-03T11:29:14;8.00;70.40
3758;DHT22;1894;51.038;13.692;2023-04-03T11:35:05;7.80;72.90
3758;DHT22;1894;51.038;13.692;2023-04-03T11:37:45;8.40;70.10
3758;DHT22;1894;51.038;13.692;2023-04-03T11:42:49;10.00;64.50
3758;DHT22;1894;51.038;13.692;2023-04-03T11:50:55;8.80;65.10
3758;DHT22;1894;51.038;13.692;2023-04-03T11:53:32;8.70;66.90
3758;DHT22;1894;51.038;13.692;2023-04-03T12:04:20;9.10;64.50
3758;DHT22;1894;51.038;13.692;2023-04-03T12:07:02;8.50;65.50
3758;DHT22;1894;51.038;13.692;2023-04-03T12:12:34;8.30;66.10
3758;DHT22;1894;51.038;13.692;2023-04-03T12:15:49;8.10;65.00
3758;DHT22;1894;51.038;13.692;2023-04-03T12:18:46;8.10;67.50
3758;DHT22;1894;51.038;13.692;2023-04-03T12:35:35;9.00;62.90
3758;DHT22;1894;51.038;13.692;2023-04-03T12:44:07;8.30;64.50
3758;DHT22;1894;51.038;13.692;2023-04-03T12:46:47;8.20;64.80
3758;DHT22;1894;51.038;13.692;2023-04-03T12:51:57;8.60;64.60
3758;DHT22;1894;51.038;13.692;2023-04-03T12:54:41;8.80;62.20
3758;DHT22;1894;51.038;13.692;2023-04-03T12:57:16;8.60;63.40
3758;DHT22;1894;51.038;13.692;2023-04-03T12:59:44;8.60;63.40
3758;DHT22;1894;51.038;13.692;2023-04-03T13:04:58;8.10;65.10
3758;DHT22;1894;51.038;13.692;2023-04-03T13:07:33;8.10;65.10
3758;DHT22;1894;51.038;13.692;2023-04-03T13:12:45;8.00;65.30
3758;DHT22;1894;51.038;13.692;2023-04-03T13:17:52;8.00;67.10
3758;DHT22;1894;51.038;13.692;2023-04-03T13:20:25;8.80;67.00
3758;DHT22;1894;51.038;13.692;2023-04-03T13:23:01;9.20;65.90
3758;DHT22;1894;51.038;13.692;2023-04-03T13:25:36;10.20;60.40
3758;DHT22;1894;51.038;13.692;2023-04-03T13:28:13;10.40;59.50
3758;DHT22;1894;51.038;13.692;2023-04-03T13:33:33;14.50;55.90
3758;DHT22;1894;51.038;13.692;2023-04-03T13:36:21;13.90;53.50
3758;DHT22;1894;51.038;13.692;2023-04-03T13:41:45;11.70;54.40
3758;DHT22;1894;51.038;13.692;2023-04-03T13:46:52;11.50;54.90
3758;DHT22;1894;51.038;13.692;2023-04-03T13:49:36;12.00;53.20
3758;DHT22;1894;51.038;13.692;2023-04-03T13:52:26;12.70;53.00
3758;DHT22;1894;51.038;13.692;2023-04-03T13:55:18;12.30;52.30
3758;DHT22;1894;51.038;13.692;2023-04-03T14:00:55;10.60;55.50
3758;DHT22;1894;51.038;13.692;2023-04-03T14:03:54;10.50;55.20
3758;DHT22;1894;51.038;13.692;2023-04-03T14:06:24;10.20;54.90
3758;DHT22;1894;51.038;13.692;2023-04-03T14:08:52;9.30;55.60
3758;DHT22;1894;51.038;13.692;2023-04-03T14:11:26;8.80;57.20
3758;DHT22;1894;51.038;13.692;2023-04-03T14:14:05;8.20;57.70
3758;DHT22;1894;51.038;13.692;2023-04-03T14:16:41;8.10;58.70
3758;DHT22;1894;51.038;13.692;2023-04-03T14:19:21;8.20;59.50
3758;DHT22;1894;51.038;13.692;2023-04-03T14:21:52;10.20;58.20
3758;DHT22;1894;51.038;13.692;2023-04-03T14:24:22;12.70;55.30
3758;DHT22;1894;51.038;13.692;2023-04-03T14:26:52;12.70;53.20
3758;DHT22;1894;51.038;13.692;2023-04-03T14:29:23;11.70;52.30
3758;DHT22;1894;51.038;13.692;2023-04-03T14:31:51;9.90;54.20
3758;DHT22;1894;51.038;13.692;2023-04-03T14:34:37;9.50;55.90
3758;DHT22;1894;51.038;13.692;2023-04-03T14:37:10;8.90;56.90
3758;DHT22;1894;51.038;13.692;2023-04-03T14:39:43;8.60;58.00
3758;DHT22;1894;51.038;13.692;2023-04-03T14:42:17;8.60;58.10
3758;DHT22;1894;51.038;13.692;2023-04-03T14:44:49;8.50;57.70
3758;DHT22;1894;51.038;13.692;2023-04-03T14:47:21;8.30;59.50
3758;DHT22;1894;51.038;13.692;2023-04-03T14:50:01;8.30;59.40
3758;DHT22;1894;51.038;13.692;2023-04-03T14:52:33;8.40;58.90
3758;DHT22;1894;51.038;13.692;2023-04-03T14:55:04;8.40;58.40
3758;DHT22;1894;51.038;13.692;2023-04-03T14:57:33;8.30;57.70
3758;DHT22;1894;51.038;13.692;2023-04-03T15:00:01;8.50;58.60
3758;DHT22;1894;51.038;13.692;2023-04-03T15:02:37;9.20;57.70
3758;DHT22;1894;51.038;13.692;2023-04-03T15:05:08;9.70;56.70
3758;DHT22;1894;51.038;13.692;2023-04-03T15:07:42;10.00;55.00
3758;DHT22;1894;51.038;13.692;2023-04-03T15:10:16;10.70;54.80
3758;DHT22;1894;51.038;13.692;2023-04-03T15:12:45;11.30;53.40
3758;DHT22;1894;51.038;13.692;2023-04-03T15:15:13;11.50;52.30
3758;DHT22;1894;51.038;13.692;2023-04-03T15:17:42;11.30;52.50
3758;DHT22;1894;51.038;13.692;2023-04-03T15:20:13;10.40;53.20
3758;DHT22;1894;51.038;13.692;2023-04-03T15:22:42;10.00;54.10
3758;DHT22;1894;51.038;13.692;2023-04-03T15:25:10;10.30;53.20
3758;DHT22;1894;51.038;13.692;2023-04-03T15:27:38;10.50;51.90
3758;DHT22;1894;51.038;13.692;2023-04-03T15:30:06;10.50;52.40
3758;DHT22;1894;51.038;13.692;2023-04-03T15:32:38;10.60;51.60
3758;DHT22;1894;51.038;13.692;2023-04-03T15:35:05;9.90;53.80
3758;DHT22;1894;51.038;13.692;2023-04-03T15:37:33;9.40;55.30
3758;DHT22;1894;51.038;13.692;2023-04-03T15:40:00;9.60;54.80
3758;DHT22;1894;51.038;13.692;2023-04-03T15:42:27;10.30;52.50
3758;DHT22;1894;51.038;13.692;2023-04-03T15:44:54;10.30;51.40
3758;DHT22;1894;51.038;13.692;2023-04-03T15:47:22;9.60;53.50
3758;DHT22;1894;51.038;13.692;2023-04-03T15:49:49;8.50;54.40
3758;DHT22;1894;51.038;13.692;2023-04-03T15:52:16;7.90;56.40
3758;DHT22;1894;51.038;13.692;2023-04-03T15:54:43;7.50;57.10
3758;DHT22;1894;51.038;13.692;2023-04-03T15:57:11;7.60;57.00
3758;DHT22;1894;51.038;13.692;2023-04-03T15:59:38;7.20;56.40
3758;DHT22;1894;51.038;13.692;2023-04-03T16:02:08;7.20;57.50
3758;DHT22;1894;51.038;13.692;2023-04-03T16:04:42;6.90;57.80
3758;DHT22;1894;51.038;13.692;2023-04-03T16:07:09;6.80;59.40
3758;DHT22;1894;51.038;13.692;2023-04-03T16:09:36;6.40;60.00
3758;DHT22;1894;51.038;13.692;2023-04-03T16:12:03;6.50;61.70
3758;DHT22;1894;51.038;13.692;2023-04-03T16:14:31;6.50;61.30
3758;DHT22;1894;51.038;13.692;2023-04-03T16:16:59;6.40;61.30
3758;DHT22;1894;51.038;13.692;2023-04-03T16:19:27;6.40;61.70
3758;DHT22;1894;51.038;13.692;2023-04-03T16:21:59;6.30;60.30
3758;DHT22;1894;51.038;13.692;2023-04-03T16:24:27;6.10;60.20
3758;DHT22;1894;51.038;13.692;2023-04-03T16:26:55;5.80;62.20
3758;DHT22;1894;51.038;13.692;2023-04-03T16:29:22;5.80;61.30
3758;DHT22;1894;51.038;13.692;2023-04-03T16:31:50;5.80;62.20
3758;DHT22;1894;51.038;13.692;2023-04-03T16:34:19;5.70;62.30
3758;DHT22;1894;51.038;13.692;2023-04-03T16:36:46;5.70;61.20
3758;DHT22;1894;51.038;13.692;2023-04-03T16:39:13;5.60;63.00
3758;DHT22;1894;51.038;13.692;2023-04-03T16:41:41;5.50;62.00
3758;DHT22;1894;51.038;13.692;2023-04-03T16:44:08;5.40;62.10
3758;DHT22;1894;51.038;13.692;2023-04-03T16:46:35;5.40;62.30
3758;DHT22;1894;51.038;13.692;2023-04-03T16:49:03;5.30;61.80
3758;DHT22;1894;51.038;13.692;2023-04-03T16:51:30;5.20;61.90
3758;DHT22;1894;51.038;13.692;2023-04-03T16:53:58;5.30;61.60
3758;DHT22;1894;51.038;13.692;2023-04-03T16:56:25;5.20;61.30
3758;DHT22;1894;51.038;13.692;2023-04-03T16:58:56;5.10;60.90
3758;DHT22;1894;51.038;13.692;2023-04-03T17:01:23;5.10;60.60
3758;DHT22;1894;51.038;13.692;2023-04-03T17:03:50;5.10;60.80
3758;DHT22;1894;51.038;13.692;2023-04-03T17:06:20;5.20;60.40
3758;DHT22;1894;51.038;13.692;2023-04-03T17:08:51;5.10;60.50
3758;DHT22;1894;51.038;13.692;2023-04-03T17:11:28;4.90;61.50
3758;DHT22;1894;51.038;13.692;2023-04-03T17:13:56;4.80;61.50
3758;DHT22;1894;51.038;13.692;2023-04-03T17:16:24;4.80;62.20
3758;DHT22;1894;51.038;13.692;2023-04-03T17:18:53;4.80;62.10
3758;DHT22;1894;51.038;13.692;2023-04-03T17:21:21;4.80;62.50
3758;DHT22;1894;51.038;13.692;2023-04-03T17:23:55;4.80;61.80
3758;DHT22;1894;51.038;13.692;2023-04-03T17:26:25;4.70;61.00
3758;DHT22;1894;51.038;13.692;2023-04-03T17:28:53;4.60;61.70
3758;DHT22;1894;51.038;13.692;2023-04-03T17:31:20;4.50;62.20
3758;DHT22;1894;51.038;13.692;2023-04-03T17:33:47;4.40;62.00
3758;DHT22;1894;51.038;13.692;2023-04-03T17:36:14;4.20;62.90
3758;DHT22;1894;51.038;13.692;2023-04-03T17:38:42;4.00;62.90
3758;DHT22;1894;51.038;13.692;2023-04-03T17:41:09;3.80;63.00
3758;DHT22;1894;51.038;13.692;2023-04-03T17:43:36;3.70;63.30
3758;DHT22;1894;51.038;13.692;2023-04-03T17:46:06;3.60;63.60
3758;DHT22;1894;51.038;13.692;2023-04-03T17:48:37;3.50;63.50
3758;DHT22;1894;51.038;13.692;2023-04-03T17:51:10;3.40;64.20
3758;DHT22;1894;51.038;13.692;2023-04-03T17:53:39;3.40;65.50
3758;DHT22;1894;51.038;13.692;2023-04-03T17:56:11;3.40;65.40
3758;DHT22;1894;51.038;13.692;2023-04-03T17:58:50;3.50;65.80
3758;DHT22;1894;51.038;13.692;2023-04-03T18:01:22;3.40;65.20
3758;DHT22;1894;51.038;13.692;2023-04-03T18:03:53;3.40;66.10
3758;DHT22;1894;51.038;13.692;2023-04-03T18:06:44;3.40;65.30
3758;DHT22;1894;51.038;13.692;2023-04-03T18:09:16;3.30;65.90
3758;DHT22;1894;51.038;13.692;2023-04-03T18:11:46;3.20;66.50
3758;DHT22;1894;51.038;13.692;2023-04-03T18:14:15;3.10;66.90
3758;DHT22;1894;51.038;13.692;2023-04-03T18:16:44;2.90;67.70